Time;durP1;ratioP1;P1;durP2;ratioP2;P2;SDS_P1;SDS_P2;PMS_P1;PMS_P2;Temp;Humidity;BMP_temperature;BMP_pressure;BME280_temperature;BME280_humidity;BME280_pressure;Samples;Min_cycle;Max_cycle;Signal;HPM_P1;HPM_P2
2022/11/18 00:00:48;;;;;;;6.05;3.63;;;8.90;99.90;;;;;;4929544;28;20047;-76
2022/11/18 00:03:13;;;;;;;7.78;3.85;;;9.00;99.90;;;;;;4935918;29;20043;-76
2022/11/18 00:05:39;;;;;;;5.38;3.72;;;9.00;99.90;;;;;;4935660;29;20053;-76
2022/11/18 00:08:05;;;;;;;7.10;3.42;;;8.90;99.90;;;;;;4939464;28;20051;-76
2022/11/18 00:10:31;;;;;;;6.35;3.92;;;8.80;99.90;;;;;;4934483;29;20035;-76
2022/11/18 00:15:40;;;;;;;7.25;3.47;;;9.00;99.90;;;;;;4937388;28;20065;-76
2022/11/18 00:18:06;;;;;;;8.60;3.95;;;9.00;99.90;;;;;;4933516;29;20478;-76
2022/11/18 00:20:33;;;;;;;6.70;4.00;;;8.80;99.90;;;;;;4933917;29;20368;-76
2022/11/18 00:22:58;;;;;;;8.52;4.00;;;8.90;99.90;;;;;;4940629;29;20536;-75
2022/11/18 00:25:24;;;;;;;9.90;4.63;;;8.90;99.90;;;;;;4942271;28;20028;-76
2022/11/18 00:27:50;;;;;;;8.23;4.03;;;8.80;99.90;;;;;;4937548;29;20039;-76
2022/11/18 00:30:16;;;;;;;8.93;4.40;;;8.80;99.90;;;;;;4946066;28;20039;-76
2022/11/18 00:32:42;;;;;;;6.68;3.55;;;8.80;99.90;;;;;;4944572;28;20371;-76
2022/11/18 00:35:08;;;;;;;8.25;4.30;;;8.80;99.90;;;;;;4939848;28;21400;-76
2022/11/18 00:37:33;;;;;;;5.75;3.58;;;8.90;99.90;;;;;;4947651;29;20502;-74
2022/11/18 00:39:59;;;;;;;7.07;3.40;;;8.90;99.90;;;;;;4947295;29;20035;-76
2022/11/18 00:45:09;;;;;;;6.55;3.75;;;9.00;99.90;;;;;;4943137;29;20106;-76
2022/11/18 00:47:34;;;;;;;8.57;4.10;;;8.90;99.90;;;;;;4952872;28;20479;-76
2022/11/18 00:50:00;;;;;;;8.55;4.70;;;8.90;99.90;;;;;;4945846;28;20505;-75
2022/11/18 00:52:25;;;;;;;8.23;4.45;;;8.90;99.90;;;;;;4935541;28;20032;-76
2022/11/18 00:54:51;;;;;;;7.25;3.95;;;8.80;99.90;;;;;;4946851;28;20038;-76
2022/11/18 00:57:17;;;;;;;10.57;4.45;;;8.80;99.90;;;;;;4941518;29;20032;-75
2022/11/18 00:59:42;;;;;;;7.60;4.43;;;8.80;99.90;;;;;;4942403;28;20126;-75
2022/11/18 01:02:08;;;;;;;7.50;4.30;;;8.90;99.90;;;;;;4942283;29;20105;-75
2022/11/18 01:04:33;;;;;;;7.90;4.25;;;8.90;99.90;;;;;;4936787;28;20039;-76
2022/11/18 01:06:59;;;;;;;10.90;4.43;;;8.90;99.90;;;;;;4940559;29;20036;-76
2022/11/18 01:09:25;;;;;;;7.15;4.28;;;8.90;99.90;;;;;;4936392;29;20474;-76
2022/11/18 01:14:36;;;;;;;7.18;4.35;;;9.00;99.90;;;;;;4955596;28;20040;-76
2022/11/18 01:17:02;;;;;;;7.53;4.60;;;9.00;99.90;;;;;;4943956;28;20083;-75
2022/11/18 01:19:27;;;;;;;6.93;4.30;;;9.10;99.90;;;;;;4947695;28;20035;-76
2022/11/18 01:21:55;;;;;;;9.10;4.32;;;9.00;99.90;;;;;;4942634;28;20031;-76
2022/11/18 01:24:21;;;;;;;6.57;4.30;;;9.10;99.90;;;;;;4938721;28;20035;-75
2022/11/18 01:26:47;;;;;;;9.80;4.68;;;9.10;99.90;;;;;;4945182;28;20036;-76
2022/11/18 01:29:13;;;;;;;6.28;3.60;;;9.10;99.90;;;;;;4940519;28;20487;-76
2022/11/18 01:31:39;;;;;;;8.32;4.15;;;9.00;99.90;;;;;;4941283;29;20079;-75
2022/11/18 01:34:04;;;;;;;7.53;4.35;;;9.00;99.90;;;;;;4935717;29;20110;-76
2022/11/18 01:36:30;;;;;;;9.52;4.05;;;9.00;99.90;;;;;;4938431;29;20047;-76
2022/11/18 01:38:56;;;;;;;7.90;4.32;;;9.10;99.90;;;;;;4932941;29;20032;-76
2022/11/18 01:41:25;;;;;;;8.10;4.30;;;9.10;99.90;;;;;;4947169;28;20032;-76
2022/11/18 01:43:57;;;;;;;7.28;4.15;;;9.00;99.90;;;;;;4933932;28;20065;-76
2022/11/18 01:46:25;;;;;;;7.00;3.92;;;9.00;99.90;;;;;;4940668;28;20035;-75
2022/11/18 01:49:13;;;;;;;7.32;3.92;;;9.00;99.90;;;;;;4951880;28;20031;-75
2022/11/18 01:51:54;;;;;;;9.23;4.90;;;8.90;99.90;;;;;;4941669;29;20542;-75
2022/11/18 01:54:34;;;;;;;5.88;3.53;;;8.90;99.90;;;;;;4934889;29;20059;-76
2022/11/18 01:57:05;;;;;;;6.80;3.95;;;8.80;99.90;;;;;;4945040;29;20035;-76
2022/11/18 01:59:35;;;;;;;10.18;4.78;;;8.90;99.90;;;;;;4938270;28;20047;-75
2022/11/18 02:02:04;;;;;;;7.55;4.18;;;8.90;99.90;;;;;;4936615;28;20530;-76
2022/11/18 02:04:29;;;;;;;6.50;3.88;;;9.00;99.90;;;;;;4942017;28;20031;-76
2022/11/18 02:06:55;;;;;;;7.07;3.83;;;9.20;99.90;;;;;;4940019;28;20020;-76
2022/11/18 02:09:22;;;;;;;7.40;4.28;;;9.10;99.90;;;;;;4933417;29;20506;-76
2022/11/18 02:11:50;;;;;;;6.63;3.72;;;9.10;99.90;;;;;;4936648;29;20024;-76
2022/11/18 02:14:32;;;;;;;9.02;4.13;;;9.20;99.90;;;;;;4932518;29;20027;-76
2022/11/18 02:17:17;;;;;;;8.25;4.80;;;9.20;99.90;;;;;;4947754;29;20043;-75
2022/11/18 02:19:45;;;;;;;10.30;4.13;;;9.10;99.90;;;;;;4939712;28;20385;-76
2022/11/18 02:22:23;;;;;;;7.68;4.10;;;9.00;99.90;;;;;;4942933;28;20039;-75
2022/11/18 02:25:17;;;;;;;10.38;4.15;;;9.20;99.90;;;;;;4932062;29;20119;-76
2022/11/18 02:28:20;;;;;;;8.95;4.35;;;9.20;99.90;;;;;;4933300;29;20541;-76
2022/11/18 02:30:52;;;;;;;8.00;3.97;;;9.10;99.90;;;;;;4938662;29;20483;-76
2022/11/18 02:33:43;;;;;;;6.82;4.45;;;9.00;99.90;;;;;;4937969;28;20074;-76
2022/11/18 02:36:18;;;;;;;7.93;4.68;;;9.00;99.90;;;;;;4937278;29;20086;-76
2022/11/18 02:38:49;;;;;;;10.02;4.47;;;9.10;99.90;;;;;;4939803;28;20034;-76
2022/11/18 02:41:22;;;;;;;9.95;5.13;;;9.10;99.90;;;;;;4943709;28;20067;-76
2022/11/18 02:44:11;;;;;;;7.95;4.95;;;9.00;99.90;;;;;;4938901;29;20478;-76
2022/11/18 02:46:39;;;;;;;7.15;4.75;;;9.00;99.90;;;;;;4942090;29;20119;-75
2022/11/18 02:49:15;;;;;;;9.43;5.22;;;8.90;99.90;;;;;;4943606;28;20032;-76
2022/11/18 02:51:43;;;;;;;8.88;4.80;;;8.80;99.90;;;;;;4952861;29;20042;-76
2022/11/18 02:54:10;;;;;;;9.38;4.40;;;8.90;99.90;;;;;;4946487;28;20031;-76
2022/11/18 02:56:36;;;;;;;10.02;3.97;;;8.90;99.90;;;;;;4939954;28;20035;-76
2022/11/18 02:59:03;;;;;;;6.93;3.65;;;8.80;99.90;;;;;;4949435;28;20419;-75
2022/11/18 03:01:32;;;;;;;8.55;3.78;;;8.90;99.90;;;;;;4940343;28;20031;-75
2022/11/18 03:03:58;;;;;;;11.40;4.20;;;9.00;99.90;;;;;;4937561;28;20059;-76
2022/11/18 03:06:42;;;;;;;6.50;3.53;;;9.10;99.90;;;;;;4937889;29;20036;-76
2022/11/18 03:09:38;;;;;;;8.70;3.92;;;9.20;99.90;;;;;;4943140;29;20043;-76
2022/11/18 03:12:40;;;;;;;5.68;3.35;;;9.20;99.90;;;;;;4951336;28;20035;-76
2022/11/18 03:15:11;;;;;;;7.88;4.03;;;9.10;99.90;;;;;;4941465;29;20019;-76
2022/11/18 03:18:04;;;;;;;6.47;4.05;;;9.10;99.90;;;;;;4948512;29;20043;-76
2022/11/18 03:20:46;;;;;;;8.07;4.07;;;9.20;99.90;;;;;;4937450;29;20118;-76
2022/11/18 03:23:31;;;;;;;7.38;4.30;;;9.20;99.90;;;;;;4951118;29;20481;-76
2022/11/18 03:26:30;;;;;;;10.93;4.47;;;9.10;99.90;;;;;;4942848;29;20160;-76
2022/11/18 03:29:05;;;;;;;7.13;4.43;;;9.10;99.90;;;;;;4944662;28;20044;-76
2022/11/18 03:31:46;;;;;;;9.73;5.15;;;9.00;99.90;;;;;;4937855;29;20041;-75
2022/11/18 03:34:19;;;;;;;6.53;4.15;;;9.00;99.90;;;;;;4947942;29;20046;-76
2022/11/18 03:36:50;;;;;;;9.82;4.15;;;9.00;99.90;;;;;;4935802;29;20044;-76
2022/11/18 03:39:18;;;;;;;6.28;3.75;;;9.00;99.90;;;;;;4941346;29;20042;-76
2022/11/18 03:41:53;;;;;;;9.70;3.38;;;9.10;99.90;;;;;;4945194;28;20057;-75
2022/11/18 03:44:26;;;;;;;6.65;3.42;;;9.20;99.90;;;;;;4944336;29;20078;-76
2022/11/18 03:46:59;;;;;;;7.28;3.92;;;9.20;99.90;;;;;;4943502;28;20610;-76
2022/11/18 03:49:36;;;;;;;6.78;4.25;;;9.20;99.90;;;;;;4946850;29;20035;-75
2022/11/18 03:52:10;;;;;;;8.93;4.00;;;9.10;99.90;;;;;;4944873;29;20031;-76
2022/11/18 03:54:39;;;;;;;5.65;3.75;;;9.10;99.90;;;;;;4945469;28;20448;-76
2022/11/18 03:57:18;;;;;;;7.63;3.95;;;9.00;99.90;;;;;;4942269;28;20051;-76
2022/11/18 03:59:48;;;;;;;7.63;4.30;;;8.90;99.90;;;;;;4942250;28;20059;-76
2022/11/18 04:02:20;;;;;;;9.32;3.90;;;9.00;99.90;;;;;;4940295;29;20043;-76
2022/11/18 04:04:48;;;;;;;7.15;3.42;;;9.00;99.90;;;;;;4932196;29;20362;-77
2022/11/18 04:07:29;;;;;;;8.48;3.50;;;9.00;99.90;;;;;;4940900;28;20046;-76
2022/11/18 04:10:23;;;;;;;9.05;4.35;;;9.20;99.90;;;;;;4942450;29;20415;-76
2022/11/18 04:13:00;;;;;;;6.47;3.60;;;9.20;99.90;;;;;;4929316;28;20487;-76
2022/11/18 04:15:28;;;;;;;7.88;3.95;;;9.10;99.90;;;;;;4928845;29;20035;-76
2022/11/18 04:17:54;;;;;;;7.65;3.53;;;9.10;99.90;;;;;;4934564;29;20043;-76
2022/11/18 04:20:22;;;;;;;7.30;3.92;;;9.20;99.90;;;;;;4934381;29;20042;-76
2022/11/18 04:22:47;;;;;;;7.05;4.20;;;9.10;99.90;;;;;;4934932;28;20412;-76
2022/11/18 04:25:14;;;;;;;7.38;3.55;;;9.10;99.90;;;;;;4940052;29;20027;-76
2022/11/18 04:27:39;;;;;;;9.02;3.95;;;9.00;99.90;;;;;;4926175;29;20487;-76
2022/11/18 04:30:06;;;;;;;7.20;3.42;;;9.10;99.90;;;;;;4928757;29;20028;-77
2022/11/18 04:32:32;;;;;;;6.40;3.38;;;9.10;99.90;;;;;;4933507;28;20047;-76
2022/11/18 04:34:58;;;;;;;8.05;3.72;;;9.00;99.90;;;;;;4928603;29;20031;-76
2022/11/18 04:37:24;;;;;;;7.60;3.70;;;9.00;99.90;;;;;;4937805;29;20043;-76
2022/11/18 04:39:50;;;;;;;6.53;4.05;;;9.00;99.90;;;;;;4938401;28;20099;-76
2022/11/18 04:42:16;;;;;;;8.60;3.28;;;9.10;99.90;;;;;;4943391;28;20434;-76
2022/11/18 04:44:42;;;;;;;5.47;3.00;;;9.10;99.90;;;;;;4939243;29;20046;-76
2022/11/18 04:47:07;;;;;;;6.30;3.00;;;9.20;99.90;;;;;;4932345;29;20040;-76
2022/11/18 04:49:34;;;;;;;6.25;3.38;;;9.20;99.90;;;;;;4940277;28;20036;-77
2022/11/18 04:52:00;;;;;;;7.35;3.55;;;9.30;99.90;;;;;;4935252;29;20038;-76
2022/11/18 04:54:27;;;;;;;7.10;3.63;;;9.20;99.90;;;;;;4931857;29;20059;-76
2022/11/18 04:56:53;;;;;;;7.18;4.43;;;9.10;99.90;;;;;;4937783;29;20039;-76
2022/11/18 04:59:25;;;;;;;7.75;4.03;;;9.10;99.90;;;;;;4940851;28;20054;-75
2022/11/18 05:01:52;;;;;;;7.63;3.45;;;9.00;99.90;;;;;;4937059;29;20038;-76
2022/11/18 05:04:20;;;;;;;6.28;3.72;;;9.10;99.90;;;;;;4936671;29;20413;-76
2022/11/18 05:06:46;;;;;;;8.05;4.22;;;9.10;99.90;;;;;;4928001;28;20035;-76
2022/11/18 05:09:12;;;;;;;5.65;3.20;;;9.20;99.90;;;;;;4928546;29;20035;-76
2022/11/18 05:14:27;;;;;;;9.55;3.33;;;9.20;99.90;;;;;;4938586;29;20130;-76
2022/11/18 05:16:54;;;;;;;8.25;3.80;;;9.20;99.90;;;;;;4932415;29;20081;-77
2022/11/18 05:19:19;;;;;;;7.72;3.67;;;9.20;99.90;;;;;;4938318;28;20039;-76
2022/11/18 05:21:45;;;;;;;8.13;4.63;;;9.20;99.90;;;;;;4926899;29;20045;-76
2022/11/18 05:24:10;;;;;;;17.75;6.10;;;9.10;99.90;;;;;;4940232;29;20031;-75
2022/11/18 05:26:36;;;;;;;15.63;8.10;;;9.00;99.90;;;;;;4933916;29;20059;-76
2022/11/18 05:29:02;;;;;;;12.60;7.68;;;9.10;99.90;;;;;;4928803;28;20486;-76
2022/11/18 05:31:28;;;;;;;12.93;6.95;;;9.00;99.90;;;;;;4928783;28;20431;-76
2022/11/18 05:33:55;;;;;;;12.63;6.85;;;9.10;99.90;;;;;;4935061;29;20032;-75
2022/11/18 05:36:21;;;;;;;10.60;6.15;;;9.00;99.90;;;;;;4936135;29;20043;-76
2022/11/18 05:38:47;;;;;;;11.05;5.32;;;8.90;99.90;;;;;;4938356;29;20075;-76
2022/11/18 05:43:09;;;;;;;5.22;3.80;;;8.90;99.90;;;;;;4935091;28;21585;-76
2022/11/18 05:43:58;;;;;;;7.53;4.45;;;8.90;99.90;;;;;;4931443;28;20608;-76
2022/11/18 05:46:25;;;;;;;8.32;4.25;;;8.90;99.90;;;;;;4929185;28;20136;-76
2022/11/18 05:48:51;;;;;;;11.73;4.88;;;8.90;99.90;;;;;;4931195;29;20020;-76
2022/11/18 05:51:17;;;;;;;7.43;4.28;;;8.90;99.90;;;;;;4939651;28;20031;-76
2022/11/18 05:53:43;;;;;;;8.25;3.97;;;9.00;99.90;;;;;;4932350;28;20043;-76
2022/11/18 05:56:17;;;;;;;8.80;4.22;;;8.80;99.90;;;;;;4932294;28;20422;-76
2022/11/18 05:58:43;;;;;;;;;;;8.80;99.90;;;;;;4929710;29;20033;-76
2022/11/18 06:01:11;;;;;;;7.30;3.60;;;8.80;99.90;;;;;;4934055;29;19919;-76
2022/11/18 06:03:39;;;;;;;8.02;3.40;;;8.90;99.90;;;;;;4927644;28;20039;-76
2022/11/18 06:06:07;;;;;;;5.72;3.53;;;8.90;99.90;;;;;;4937003;29;20030;-76
2022/11/18 06:08:41;;;;;;;10.98;4.72;;;8.90;99.90;;;;;;4942738;28;20031;-76
2022/11/18 06:11:10;;;;;;;5.88;3.17;;;9.00;99.90;;;;;;4939635;28;20152;-76
2022/11/18 06:13:49;;;;;;;7.20;3.72;;;9.00;99.90;;;;;;4924912;29;20541;-76
2022/11/18 06:16:19;;;;;;;7.60;4.05;;;9.00;99.90;;;;;;4930542;29;20447;-76
2022/11/18 06:18:45;;;;;;;7.50;3.38;;;8.90;99.90;;;;;;4931873;28;20028;-76
2022/11/18 06:21:10;;;;;;;7.35;3.33;;;9.00;99.90;;;;;;4930472;29;20114;-76
2022/11/18 06:23:39;;;;;;;7.05;3.30;;;9.00;99.90;;;;;;4925814;29;20032;-76
2022/11/18 06:26:06;;;;;;;5.70;3.38;;;9.00;99.90;;;;;;4930494;28;20066;-76
2022/11/18 06:28:32;;;;;;;11.18;6.35;;;9.10;99.90;;;;;;4938524;29;20122;-76
2022/11/18 06:30:58;;;;;;;6.55;4.00;;;9.00;99.90;;;;;;4937323;28;20554;-76
2022/11/18 06:33:23;;;;;;;6.65;4.00;;;9.20;99.90;;;;;;4923521;29;20027;-76
2022/11/18 06:35:49;;;;;;;10.57;4.47;;;9.20;99.90;;;;;;4931853;29;20038;-76
2022/11/18 06:38:15;;;;;;;7.55;3.35;;;9.20;99.90;;;;;;4932730;28;20046;-74
2022/11/18 06:40:43;;;;;;;5.57;2.53;;;9.10;99.90;;;;;;4927394;28;20123;-73
2022/11/18 06:48:42;;;;;;;5.43;3.10;;;9.30;99.90;;;;;;4925597;29;20054;-75
2022/11/18 06:51:08;;;;;;;9.88;4.13;;;9.30;99.90;;;;;;4937517;29;20035;-76
2022/11/18 06:53:34;;;;;;;7.38;3.60;;;9.20;99.90;;;;;;4930971;29;20110;-75
2022/11/18 06:56:05;;;;;;;10.60;3.53;;;9.20;99.90;;;;;;4934761;28;20090;-75
2022/11/18 06:58:30;;;;;;;5.40;3.15;;;9.30;99.90;;;;;;4928996;28;20043;-75
2022/11/18 07:00:56;;;;;;;7.22;3.25;;;9.30;99.90;;;;;;4934282;28;20048;-74
2022/11/18 07:03:22;;;;;;;9.82;4.68;;;9.30;99.90;;;;;;4930615;28;20470;-74
2022/11/18 07:05:47;;;;;;;5.57;3.20;;;9.30;99.90;;;;;;4927081;28;20370;-75
2022/11/18 07:08:13;;;;;;;7.07;3.25;;;9.30;99.90;;;;;;4927303;28;20027;-75
2022/11/18 07:10:38;;;;;;;9.55;3.15;;;9.30;99.90;;;;;;4925710;28;20363;-74
2022/11/18 07:13:04;;;;;;;8.70;5.28;;;9.30;99.90;;;;;;4931386;28;20378;-74
2022/11/18 07:15:30;;;;;;;7.30;3.97;;;9.30;99.90;;;;;;4935520;28;20035;-74
2022/11/18 07:17:55;;;;;;;15.50;7.57;;;9.30;99.90;;;;;;4925216;28;20085;-75
2022/11/18 07:20:21;;;;;;;8.90;4.88;;;9.30;99.90;;;;;;4938673;28;20039;-75
2022/11/18 07:22:47;;;;;;;6.60;3.78;;;9.40;99.90;;;;;;4942693;28;20038;-75
2022/11/18 07:25:12;;;;;;;7.68;3.28;;;9.40;99.90;;;;;;4940852;29;20027;-74
2022/11/18 07:27:38;;;;;;;5.32;3.05;;;9.40;99.90;;;;;;4942877;28;20027;-75
2022/11/18 07:30:04;;;;;;;10.57;3.45;;;9.40;99.90;;;;;;4945956;28;20035;-76
2022/11/18 07:32:32;;;;;;;5.43;3.38;;;9.20;99.90;;;;;;4944248;29;20549;-75
2022/11/18 07:34:57;;;;;;;6.28;2.95;;;9.20;99.90;;;;;;4943076;28;20028;-75
2022/11/18 07:37:23;;;;;;;6.47;3.47;;;9.10;99.90;;;;;;4933601;28;20070;-75
2022/11/18 07:39:49;;;;;;;9.07;3.45;;;9.30;99.90;;;;;;4930381;28;20066;-75
2022/11/18 07:42:14;;;;;;;5.93;3.03;;;9.50;99.90;;;;;;4951127;28;20110;-75
2022/11/18 07:44:40;;;;;;;5.65;3.10;;;9.40;99.90;;;;;;4934663;28;20027;-75
2022/11/18 07:47:05;;;;;;;6.03;3.55;;;9.40;99.90;;;;;;4932662;29;20027;-75
2022/11/18 07:49:31;;;;;;;9.48;3.35;;;9.30;99.90;;;;;;4938401;28;20766;-75
2022/11/18 07:51:57;;;;;;;7.28;3.45;;;9.20;99.90;;;;;;4943343;28;20023;-75
2022/11/18 07:54:22;;;;;;;4.90;2.90;;;9.20;99.90;;;;;;4934811;29;20031;-77
2022/11/18 07:56:48;;;;;;;5.47;2.85;;;9.30;99.90;;;;;;4930841;28;20093;-77
2022/11/18 07:59:13;;;;;;;4.85;2.63;;;9.40;99.90;;;;;;4936931;28;20039;-74
2022/11/18 08:01:39;;;;;;;4.72;2.70;;;9.60;99.90;;;;;;4938975;28;20105;-74
2022/11/18 08:04:14;;;;;;;7.68;2.42;;;9.70;99.90;;;;;;4930542;28;20042;-78
2022/11/18 08:06:40;;;;;;;6.18;2.60;;;9.80;99.90;;;;;;4932035;28;20027;-77
2022/11/18 08:09:06;;;;;;;5.38;2.90;;;9.90;99.90;;;;;;4938485;28;20038;-77
2022/11/18 08:11:33;;;;;;;5.50;2.53;;;9.90;99.90;;;;;;4934938;29;20063;-77
2022/11/18 08:13:58;;;;;;;4.10;2.33;;;9.80;99.90;;;;;;4935021;29;20452;-77
2022/11/18 08:16:25;;;;;;;6.03;2.85;;;9.80;99.90;;;;;;4930345;28;20040;-76
2022/11/18 08:18:51;;;;;;;6.40;2.45;;;9.90;99.90;;;;;;4929477;28;20091;-76
2022/11/18 08:21:18;;;;;;;6.70;2.92;;;9.90;99.90;;;;;;4934315;28;20036;-76
2022/11/18 08:23:52;;;;;;;5.82;2.58;;;10.00;99.90;;;;;;4933191;28;20027;-76
2022/11/18 08:26:18;;;;;;;3.70;2.53;;;10.00;99.90;;;;;;4936259;28;20046;-75
2022/11/18 08:28:44;;;;;;;7.28;3.00;;;10.00;99.90;;;;;;4941285;28;20019;-75
2022/11/18 08:31:13;;;;;;;8.25;3.97;;;9.90;99.90;;;;;;4934754;28;20101;-76
2022/11/18 08:33:38;;;;;;;6.63;3.78;;;9.70;99.90;;;;;;4931241;29;20118;-76
2022/11/18 08:36:17;;;;;;;6.60;3.17;;;9.50;99.90;;;;;;4928914;28;20118;-76
2022/11/18 08:38:44;;;;;;;5.55;3.00;;;9.60;99.90;;;;;;4934852;29;20716;-76
2022/11/18 08:41:13;;;;;;;7.25;2.70;;;9.60;99.90;;;;;;4936657;28;20027;-76
2022/11/18 08:43:38;;;;;;;4.63;2.40;;;9.80;99.90;;;;;;4933383;29;20071;-77
2022/11/18 08:46:04;;;;;;;5.10;2.45;;;10.00;99.90;;;;;;4928103;29;20046;-76
2022/11/18 08:48:30;;;;;;;6.35;3.75;;;10.00;99.90;;;;;;4934907;28;20035;-75
2022/11/18 08:50:57;;;;;;;6.35;3.70;;;9.90;99.90;;;;;;4934446;28;20028;-76
2022/11/18 08:53:23;;;;;;;9.27;4.00;;;9.90;99.90;;;;;;4930273;28;20058;-76
2022/11/18 08:55:57;;;;;;;10.82;4.43;;;9.90;99.90;;;;;;4931433;29;20440;-76
2022/11/18 08:58:23;;;;;;;5.70;3.33;;;9.80;99.90;;;;;;4931900;28;20066;-76
2022/11/18 09:00:49;;;;;;;5.43;2.28;;;9.80;99.90;;;;;;4944656;28;20102;-76
2022/11/18 09:03:15;;;;;;;5.88;2.05;;;10.00;99.90;;;;;;4935338;28;20611;-76
2022/11/18 09:05:40;;;;;;;6.10;2.50;;;10.40;99.90;;;;;;4924987;29;20036;-76
2022/11/18 09:08:06;;;;;;;8.43;4.00;;;10.30;99.90;;;;;;4923984;29;20066;-76
2022/11/18 09:10:33;;;;;;;7.07;4.50;;;10.00;99.90;;;;;;4936703;28;20035;-76
2022/11/18 09:12:59;;;;;;;9.70;4.28;;;9.90;99.90;;;;;;4930184;28;20095;-76
2022/11/18 09:15:26;;;;;;;7.60;4.25;;;10.00;99.90;;;;;;4939592;28;20051;-76
2022/11/18 09:17:51;;;;;;;9.65;4.85;;;10.00;99.90;;;;;;4931589;29;20047;-76
2022/11/18 09:20:17;;;;;;;11.18;4.35;;;10.00;99.90;;;;;;4935819;28;20485;-76
2022/11/18 09:22:43;;;;;;;7.60;3.83;;;10.10;99.90;;;;;;4927503;28;20063;-76
2022/11/18 09:25:09;;;;;;;4.70;2.25;;;10.30;99.90;;;;;;4939663;28;20034;-76
2022/11/18 09:27:35;;;;;;;7.43;2.58;;;10.40;99.90;;;;;;4929859;28;20050;-76
2022/11/18 09:30:00;;;;;;;4.32;2.30;;;10.70;99.90;;;;;;4943915;28;20470;-76
2022/11/18 09:32:26;;;;;;;3.83;1.45;;;10.80;99.90;;;;;;4932786;28;20039;-76
2022/11/18 09:34:52;;;;;;;3.10;1.38;;;11.00;99.90;;;;;;4923679;29;20063;-76
2022/11/18 09:37:18;;;;;;;4.75;1.83;;;11.10;99.90;;;;;;4924839;29;20043;-76
2022/11/18 09:39:43;;;;;;;3.67;1.70;;;11.20;99.90;;;;;;4931144;29;20035;-76
2022/11/18 09:42:27;;;;;;;2.83;1.45;;;11.40;99.90;;;;;;4938884;28;20459;-76
2022/11/18 09:45:04;;;;;;;7.15;3.58;;;11.40;99.90;;;;;;4936100;28;20114;-76
2022/11/18 09:47:32;;;;;;;7.70;3.95;;;11.00;99.90;;;;;;4928694;29;20097;-76
2022/11/18 09:50:24;;;;;;;7.00;4.30;;;10.60;99.90;;;;;;4934615;29;20027;-76
2022/11/18 09:53:05;;;;;;;6.80;3.75;;;10.50;99.90;;;;;;4930348;29;20032;-76
2022/11/18 09:55:33;;;;;;;6.20;2.80;;;10.40;99.90;;;;;;4934812;29;20494;-76
2022/11/18 09:57:59;;;;;;;6.05;2.38;;;10.40;99.90;;;;;;4932167;29;20050;-76
2022/11/18 10:00:31;;;;;;;4.90;2.78;;;10.70;99.90;;;;;;4932737;28;20570;-76
2022/11/18 10:03:06;;;;;;;3.58;1.50;;;10.90;99.90;;;;;;4932470;28;20090;-76
2022/11/18 10:06:08;;;;;;;7.18;2.92;;;11.20;99.90;;;;;;4932415;28;20041;-76
2022/11/18 10:08:44;;;;;;;4.75;2.15;;;11.40;99.90;;;;;;4933019;29;20036;-76
2022/11/18 10:11:15;;;;;;;5.75;2.67;;;11.40;99.90;;;;;;4929160;29;20027;-76
2022/11/18 10:13:52;;;;;;;5.25;2.00;;;11.50;99.90;;;;;;4934009;29;20093;-76
2022/11/18 10:16:44;;;;;;;5.50;3.28;;;11.50;99.90;;;;;;4936644;28;20035;-76
2022/11/18 10:19:23;;;;;;;6.70;3.15;;;11.70;99.90;;;;;;4925506;29;20066;-76
2022/11/18 10:22:07;;;;;;;5.82;3.35;;;11.70;99.90;;;;;;4930137;29;20032;-76
2022/11/18 10:24:39;;;;;;;7.25;5.03;;;11.70;99.90;;;;;;4927442;29;20035;-76
2022/11/18 10:27:10;;;;;;;6.55;4.10;;;11.70;99.90;;;;;;4943735;28;20055;-76
2022/11/18 10:29:36;;;;;;;13.45;7.97;;;11.60;99.90;;;;;;4932339;28;20023;-76
2022/11/18 10:32:03;;;;;;;5.43;3.10;;;11.70;99.90;;;;;;4924360;28;20067;-76
2022/11/18 10:34:30;;;;;;;3.83;2.10;;;11.70;99.90;;;;;;4928695;28;20479;-76
2022/11/18 10:37:20;;;;;;;4.75;2.33;;;12.10;99.90;;;;;;4926194;29;20122;-76
2022/11/18 10:39:54;;;;;;;5.15;2.47;;;12.00;99.90;;;;;;4932317;29;20561;-76
2022/11/18 10:42:30;;;;;;;4.68;2.72;;;12.00;99.90;;;;;;4934024;28;20051;-76
2022/11/18 10:45:16;;;;;;;5.10;3.15;;;12.10;99.90;;;;;;4924595;28;20118;-76
2022/11/18 10:47:41;;;;;;;5.00;2.00;;;12.00;99.90;;;;;;4927676;28;20433;-76
2022/11/18 10:50:29;;;;;;;6.72;2.88;;;11.90;99.90;;;;;;4937100;28;20043;-76
2022/11/18 10:52:55;;;;;;;6.53;3.10;;;11.80;99.90;;;;;;4937388;28;20041;-76
2022/11/18 10:55:23;;;;;;;9.95;3.33;;;11.80;99.90;;;;;;4942958;28;20750;-76
2022/11/18 10:58:01;;;;;;;4.72;2.42;;;11.90;99.90;;;;;;4935298;28;20043;-76
2022/11/18 11:00:50;;;;;;;4.35;2.30;;;11.80;99.90;;;;;;4929292;28;20130;-76
2022/11/18 11:03:56;;;;;;;5.18;2.20;;;11.90;99.90;;;;;;4928176;29;20035;-76
2022/11/18 11:06:25;;;;;;;4.10;2.00;;;12.00;99.90;;;;;;4934252;28;20074;-76
2022/11/18 11:09:25;;;;;;;5.90;2.10;;;12.10;99.90;;;;;;4931889;28;20030;-76
2022/11/18 11:12:14;;;;;;;8.75;1.77;;;12.20;99.90;;;;;;4936596;28;20058;-76
2022/11/18 11:14:56;;;;;;;6.63;1.85;;;12.30;99.90;;;;;;4936473;29;20049;-77
2022/11/18 11:17:32;;;;;;;3.45;1.73;;;12.30;99.90;;;;;;4939405;28;20068;-76
2022/11/18 11:20:16;;;;;;;3.45;1.30;;;12.30;99.90;;;;;;4932221;29;20032;-76
2022/11/18 11:22:42;;;;;;;2.97;1.70;;;12.50;99.90;;;;;;4934394;29;20228;-76
2022/11/18 11:25:15;;;;;;;3.03;1.30;;;12.60;99.90;;;;;;4936236;28;20281;-77
2022/11/18 11:28:07;;;;;;;4.80;1.77;;;12.70;99.90;;;;;;4932666;29;20534;-76
2022/11/18 11:30:42;;;;;;;5.82;2.08;;;12.90;99.90;;;;;;4934591;28;20097;-74
2022/11/18 11:33:30;;;;;;;4.90;1.75;;;13.10;99.90;;;;;;4936072;28;20078;-74
2022/11/18 11:36:17;;;;;;;3.25;1.65;;;13.10;99.90;;;;;;4932177;28;20062;-76
2022/11/18 11:38:42;;;;;;;4.13;1.80;;;13.00;99.90;;;;;;4937528;28;20035;-77
2022/11/18 11:41:25;;;;;;;4.32;1.70;;;13.00;99.90;;;;;;4927989;29;20032;-76
2022/11/18 11:44:37;;;;;;;3.35;1.70;;;12.90;99.90;;;;;;4925765;28;20062;-75
2022/11/18 11:50:18;;;;;;;3.03;1.40;;;12.90;99.90;;;;;;4927938;29;20501;-77
2022/11/18 11:53:21;;;;;;;4.65;1.98;;;12.80;99.90;;;;;;4926709;29;20534;-79
2022/11/18 11:55:56;;;;;;;7.00;3.97;;;13.00;99.90;;;;;;4930960;29;20047;-76
2022/11/18 11:58:30;;;;;;;;;;;13.10;99.90;;;;;;4932937;28;20742;-77
2022/11/18 12:01:05;;;;;;;3.50;1.67;;;12.90;99.90;;;;;;4929985;28;19970;-80
2022/11/18 12:03:49;;;;;;;3.67;1.33;;;13.10;99.90;;;;;;4929640;29;20414;-77
2022/11/18 12:06:15;;;;;;;3.60;1.55;;;13.20;99.90;;;;;;4934819;29;20034;-77
2022/11/18 12:08:58;;;;;;;4.38;1.95;;;13.30;99.90;;;;;;4932456;28;20035;-77
2022/11/18 12:11:36;;;;;;;3.80;1.70;;;13.40;99.90;;;;;;4930625;28;20470;-77
2022/11/18 12:14:24;;;;;;;3.60;1.50;;;13.30;99.90;;;;;;4928672;28;20483;-75
2022/11/18 12:17:31;;;;;;;4.28;1.63;;;13.30;99.90;;;;;;4936842;28;20430;-75
2022/11/18 12:19:56;;;;;;;3.72;1.70;;;13.50;99.90;;;;;;4925227;28;20043;-78
2022/11/18 12:22:22;;;;;;;3.45;1.45;;;13.60;99.90;;;;;;4928347;28;20027;-76
2022/11/18 12:24:48;;;;;;;3.13;1.50;;;13.40;99.90;;;;;;4938723;28;20042;-77
2022/11/18 12:27:36;;;;;;;4.78;2.20;;;13.50;99.90;;;;;;4933582;28;20042;-75
2022/11/18 12:30:03;;;;;;;4.43;1.92;;;13.70;99.90;;;;;;4934674;28;20038;-77
2022/11/18 12:32:41;;;;;;;3.10;1.50;;;13.60;99.90;;;;;;4929362;28;20044;-77
2022/11/18 12:35:12;;;;;;;4.45;1.67;;;13.40;99.90;;;;;;4931548;28;20023;-78
2022/11/18 12:37:50;;;;;;;4.50;1.85;;;13.40;99.90;;;;;;4928527;28;20402;-76
2022/11/18 12:40:39;;;;;;;4.13;1.80;;;13.40;99.90;;;;;;4941905;28;20502;-77
2022/11/18 12:43:45;;;;;;;4.35;1.77;;;13.80;99.90;;;;;;4933590;28;20083;-79
2022/11/18 12:46:34;;;;;;;3.25;1.42;;;13.80;99.90;;;;;;4933965;29;20462;-77
2022/11/18 12:49:22;;;;;;;3.22;1.35;;;13.90;98.60;;;;;;4932092;28;20091;-78
2022/11/18 12:51:49;;;;;;;2.22;1.00;;;13.80;99.90;;;;;;4930621;28;20463;-77
2022/11/18 12:54:33;;;;;;;2.00;0.98;;;13.90;99.60;;;;;;4929053;28;20086;-78
2022/11/18 12:57:14;;;;;;;3.08;1.13;;;14.00;98.70;;;;;;4939300;29;20057;-76
2022/11/18 12:59:40;;;;;;;1.85;0.60;;;13.90;98.90;;;;;;4924644;29;20043;-76
2022/11/18 13:02:26;;;;;;;5.60;1.52;;;13.90;98.10;;;;;;4925625;29;20034;-76
2022/11/18 13:05:07;;;;;;;1.77;0.90;;;13.70;97.60;;;;;;4927333;29;20036;-78
2022/11/18 13:08:14;;;;;;;2.75;1.13;;;13.80;97.90;;;;;;4928037;28;20667;-77
2022/11/18 13:10:45;;;;;;;3.00;1.38;;;13.90;98.20;;;;;;4927332;29;20529;-75
2022/11/18 13:13:25;;;;;;;2.80;1.20;;;13.90;98.00;;;;;;4931557;29;20093;-77
2022/11/18 13:18:52;;;;;;;3.03;1.50;;;14.00;99.30;;;;;;4928331;29;20090;-77
2022/11/18 13:24:20;;;;;;;2.13;1.10;;;13.80;98.10;;;;;;4931745;28;20074;-78
2022/11/18 13:26:47;;;;;;;3.70;1.58;;;13.80;98.40;;;;;;4928838;29;20035;-78
2022/11/18 13:29:21;;;;;;;3.80;1.65;;;14.00;99.70;;;;;;4934269;29;20032;-76
2022/11/18 13:32:15;;;;;;;3.88;1.58;;;13.90;99.30;;;;;;4934097;28;20027;-76
2022/11/18 13:35:06;;;;;;;7.82;2.08;;;13.80;98.80;;;;;;4927296;29;20028;-76
2022/11/18 13:37:35;;;;;;;4.25;1.88;;;13.90;99.60;;;;;;4928270;29;20133;-78
2022/11/18 13:40:01;;;;;;;5.50;2.67;;;14.00;99.90;;;;;;4929255;29;20027;-77
2022/11/18 13:42:29;;;;;;;4.45;2.03;;;14.10;99.90;;;;;;4932373;28;20103;-78